createdAt,value
2022-07-31T00:00:49.186Z,7.78
2022-07-31T00:03:17.456Z,7.70
2022-07-31T00:05:45.626Z,7.57
2022-07-31T00:08:16.879Z,8.57
2022-07-31T00:10:45.025Z,7.15
2022-07-31T00:13:14.196Z,11.93
2022-07-31T00:15:42.374Z,11.15
2022-07-31T00:18:10.541Z,10.18
2022-07-31T00:20:38.752Z,13.45
2022-07-31T00:23:06.939Z,10.98
2022-07-31T00:25:36.530Z,12.80
2022-07-31T00:28:05.301Z,12.95
2022-07-31T00:30:33.598Z,16.55
2022-07-31T00:33:01.755Z,14.65
2022-07-31T00:35:29.890Z,14.48
2022-07-31T00:38:12.192Z,14.45
2022-07-31T00:40:51.277Z,14.10
2022-07-31T00:43:19.748Z,15.48
2022-07-31T00:45:53.220Z,15.07
2022-07-31T00:48:27.723Z,11.60
2022-07-31T00:50:56.415Z,9.90
2022-07-31T00:53:24.758Z,11.73
2022-07-31T00:55:54.350Z,12.95
2022-07-31T00:58:22.502Z,9.93
2022-07-31T01:00:50.810Z,10.20
2022-07-31T01:03:19.784Z,10.05
2022-07-31T01:05:47.948Z,12.35
2022-07-31T01:08:16.591Z,10.23
2022-07-31T01:10:53.505Z,10.70
2022-07-31T01:13:31.375Z,9.70
2022-07-31T01:16:02.200Z,8.20
2022-07-31T01:18:34.215Z,8.35
2022-07-31T01:21:06.875Z,8.25
2022-07-31T01:23:57.970Z,9.13
2022-07-31T01:26:41.954Z,9.63
2022-07-31T01:29:20.091Z,6.55
2022-07-31T01:31:53.656Z,10.63
2022-07-31T01:34:27.240Z,9.23
2022-07-31T01:37:02.632Z,9.07
2022-07-31T01:39:35.021Z,8.35
2022-07-31T01:42:07.639Z,6.07
2022-07-31T01:44:43.245Z,5.72
2022-07-31T01:47:14.085Z,4.45
2022-07-31T01:49:45.138Z,6.63
2022-07-31T01:52:14.297Z,5.55
2022-07-31T01:54:43.043Z,4.45
2022-07-31T01:57:13.123Z,5.93
2022-07-31T01:59:49.105Z,7.25
2022-07-31T02:02:19.261Z,6.40
2022-07-31T02:04:48.642Z,6.88
2022-07-31T02:07:17.901Z,8.05
2022-07-31T02:09:52.378Z,7.38
2022-07-31T02:12:32.144Z,9.55
2022-07-31T02:15:04.660Z,7.18
2022-07-31T02:17:34.049Z,4.50
2022-07-31T02:20:04.217Z,6.00
2022-07-31T02:22:32.616Z,7.07
2022-07-31T02:25:00.875Z,10.38
2022-07-31T02:27:57.815Z,8.82
2022-07-31T02:30:21.495Z,6.32
2022-07-31T02:32:50.943Z,8.10
2022-07-31T02:35:20.059Z,8.65
2022-07-31T02:37:51.958Z,6.88
2022-07-31T02:40:21.343Z,6.25
2022-07-31T02:42:50.615Z,6.97
2022-07-31T02:45:22.528Z,11.65
2022-07-31T02:47:50.741Z,10.90
2022-07-31T02:50:20.293Z,7.65
2022-07-31T02:52:48.898Z,5.57
2022-07-31T02:55:18.522Z,6.70
2022-07-31T02:57:48.258Z,5.72
2022-07-31T03:00:23.053Z,5.15
2022-07-31T03:02:53.060Z,9.45
2022-07-31T03:05:21.312Z,8.27
2022-07-31T03:07:50.179Z,5.20
2022-07-31T03:10:18.488Z,3.75
2022-07-31T03:12:50.036Z,3.00
2022-07-31T03:15:20.688Z,3.97
2022-07-31T03:17:50.412Z,5.55
2022-07-31T03:20:21.836Z,5.28
2022-07-31T03:22:50.160Z,8.75
2022-07-31T03:25:21.306Z,6.90
2022-07-31T03:27:55.765Z,9.98
2022-07-31T03:30:25.375Z,7.80
2022-07-31T03:32:54.124Z,11.15
2022-07-31T03:35:24.550Z,6.63
2022-07-31T03:37:53.214Z,6.53
2022-07-31T03:40:21.508Z,7.93
2022-07-31T03:42:50.974Z,5.30
2022-07-31T03:45:20.546Z,7.28
2022-07-31T03:47:49.025Z,6.97
2022-07-31T03:50:18.461Z,6.40
2022-07-31T03:52:49.354Z,4.20
2022-07-31T03:55:17.917Z,3.88
2022-07-31T03:57:47.652Z,6.30
2022-07-31T04:00:20.532Z,4.15
2022-07-31T04:02:48.817Z,3.13
2022-07-31T04:05:17.034Z,3.08
2022-07-31T04:07:45.197Z,5.53
2022-07-31T04:10:14.805Z,2.35
2022-07-31T04:12:43.037Z,2.75
2022-07-31T04:15:11.811Z,2.30
2022-07-31T04:17:39.983Z,2.13
2022-07-31T04:20:09.828Z,4.07
2022-07-31T04:22:38.415Z,2.15
2022-07-31T04:25:08.790Z,1.90
2022-07-31T04:27:48.044Z,1.52
2022-07-31T04:30:17.333Z,1.50
2022-07-31T04:32:45.664Z,1.20
2022-07-31T04:35:14.366Z,1.20
2022-07-31T04:37:43.606Z,1.50
2022-07-31T04:40:17.167Z,0.80
2022-07-31T04:42:46.714Z,1.00
2022-07-31T04:45:14.874Z,0.90
2022-07-31T04:47:43.019Z,0.90
2022-07-31T04:50:11.570Z,1.45
2022-07-31T04:52:39.763Z,1.30
2022-07-31T04:55:08.624Z,2.50
2022-07-31T04:57:36.771Z,2.40
2022-07-31T05:00:09.614Z,2.25
2022-07-31T05:02:37.797Z,3.30
2022-07-31T05:05:06.759Z,1.45
2022-07-31T05:07:35.513Z,2.42
2022-07-31T05:10:03.704Z,3.90
2022-07-31T05:12:31.832Z,2.75
2022-07-31T05:15:00.045Z,2.80
2022-07-31T05:17:29.633Z,2.40
2022-07-31T05:19:57.804Z,1.80
2022-07-31T05:22:25.999Z,2.72
2022-07-31T05:24:54.678Z,2.60
2022-07-31T05:27:22.886Z,6.95
2022-07-31T05:29:51.230Z,7.05
2022-07-31T05:32:19.322Z,9.20
2022-07-31T05:34:48.892Z,8.27
2022-07-31T05:37:17.036Z,6.93
2022-07-31T05:39:45.189Z,6.43
2022-07-31T05:42:13.368Z,7.70
2022-07-31T05:44:41.540Z,6.90
2022-07-31T05:47:09.801Z,6.28
2022-07-31T05:49:38.064Z,7.13
2022-07-31T05:52:07.832Z,9.70
2022-07-31T05:54:36.198Z,5.80
2022-07-31T05:57:04.396Z,4.05
2022-07-31T05:59:34.818Z,3.17
2022-07-31T06:02:03.252Z,2.30
2022-07-31T06:04:31.617Z,4.03
2022-07-31T06:06:59.785Z,3.67
2022-07-31T06:09:29.313Z,3.13
2022-07-31T06:11:57.501Z,3.17
2022-07-31T06:14:25.668Z,3.08
2022-07-31T06:16:53.808Z,1.70
2022-07-31T06:19:24.424Z,5.75
2022-07-31T06:21:54.073Z,2.28
2022-07-31T06:24:22.403Z,2.00
2022-07-31T06:26:52.014Z,2.88
2022-07-31T06:29:20.385Z,1.90
2022-07-31T06:32:08.900Z,3.00
2022-07-31T06:34:37.064Z,2.30
2022-07-31T06:37:05.283Z,2.92
2022-07-31T06:39:55.343Z,1.95
2022-07-31T06:42:24.295Z,2.47
2022-07-31T06:44:52.953Z,2.92
2022-07-31T06:47:23.576Z,3.45
2022-07-31T06:49:51.884Z,3.45
2022-07-31T06:52:20.192Z,5.57
2022-07-31T06:54:48.416Z,4.75
2022-07-31T06:57:16.654Z,2.88
2022-07-31T06:59:46.229Z,7.50
2022-07-31T07:02:14.473Z,3.47
2022-07-31T07:05:00.049Z,3.35
2022-07-31T07:07:32.122Z,3.65
2022-07-31T07:10:00.641Z,3.08
2022-07-31T07:12:28.840Z,4.25
2022-07-31T07:14:59.123Z,2.63
2022-07-31T07:17:29.214Z,4.15
2022-07-31T07:19:58.265Z,3.67
2022-07-31T07:22:29.934Z,4.93
2022-07-31T07:25:01.034Z,3.78
2022-07-31T07:27:29.259Z,4.13
2022-07-31T07:30:00.292Z,5.95
2022-07-31T07:32:28.434Z,3.50
2022-07-31T07:34:59.439Z,3.72
2022-07-31T07:37:29.747Z,4.93
2022-07-31T07:39:58.039Z,4.75
2022-07-31T07:42:32.732Z,4.80
2022-07-31T07:45:03.438Z,4.65
2022-07-31T07:48:06.214Z,5.28
2022-07-31T07:50:26.861Z,7.88
2022-07-31T07:52:57.787Z,7.03
2022-07-31T07:55:26.336Z,5.15
2022-07-31T07:57:54.631Z,5.50
2022-07-31T08:00:26.126Z,4.20
2022-07-31T08:03:02.884Z,4.68
2022-07-31T08:05:42.996Z,4.95
2022-07-31T08:08:11.313Z,3.90
2022-07-31T08:10:41.203Z,5.10
2022-07-31T08:13:09.509Z,4.10
2022-07-31T08:15:39.036Z,4.32
2022-07-31T08:18:07.468Z,5.18
2022-07-31T08:20:37.430Z,4.28
2022-07-31T08:23:05.620Z,4.22
2022-07-31T08:25:33.829Z,3.83
2022-07-31T08:28:02.304Z,3.95
2022-07-31T08:30:31.258Z,6.03
2022-07-31T08:33:01.105Z,4.20
2022-07-31T08:35:29.466Z,6.68
2022-07-31T08:38:03.124Z,3.92
2022-07-31T08:40:33.570Z,5.57
2022-07-31T08:43:31.150Z,5.78
2022-07-31T08:46:02.552Z,4.82
2022-07-31T08:48:34.264Z,5.50
2022-07-31T08:51:04.522Z,3.45
2022-07-31T08:53:37.314Z,4.20
2022-07-31T08:56:07.271Z,5.22
2022-07-31T08:58:39.278Z,4.68
2022-07-31T09:01:09.098Z,5.40
2022-07-31T09:03:39.053Z,4.90
2022-07-31T09:06:07.898Z,3.78
2022-07-31T09:08:37.232Z,4.70
2022-07-31T09:11:06.874Z,4.93
2022-07-31T09:13:36.089Z,4.65
2022-07-31T09:16:05.095Z,4.15
2022-07-31T09:18:33.356Z,3.55
2022-07-31T09:21:04.290Z,5.63
2022-07-31T09:23:33.353Z,3.92
2022-07-31T09:26:03.239Z,3.10
2022-07-31T09:28:36.886Z,3.83
2022-07-31T09:31:06.966Z,3.58
2022-07-31T09:33:42.297Z,3.72
2022-07-31T09:36:15.533Z,5.47
2022-07-31T09:38:44.513Z,3.70
2022-07-31T09:41:23.168Z,5.07
2022-07-31T09:44:10.114Z,4.50
2022-07-31T09:46:42.546Z,4.40
2022-07-31T09:49:11.524Z,4.78
2022-07-31T09:51:42.424Z,4.72
2022-07-31T09:54:22.218Z,6.68
2022-07-31T09:56:50.924Z,5.82
2022-07-31T09:59:19.464Z,4.32
2022-07-31T10:01:49.561Z,5.35
2022-07-31T10:04:19.238Z,5.95
2022-07-31T10:06:51.013Z,6.30
2022-07-31T10:09:21.091Z,5.95
2022-07-31T10:11:51.635Z,3.47
2022-07-31T10:14:23.732Z,4.40
2022-07-31T10:16:55.851Z,4.90
2022-07-31T10:19:24.787Z,3.47
2022-07-31T10:21:58.569Z,4.32
2022-07-31T10:24:29.799Z,4.47
2022-07-31T10:27:01.181Z,5.22
2022-07-31T10:29:33.055Z,4.88
2022-07-31T10:32:01.963Z,4.07
2022-07-31T10:34:30.465Z,3.50
2022-07-31T10:37:08.247Z,4.30
2022-07-31T10:39:46.811Z,7.82
2022-07-31T10:42:28.854Z,9.20
2022-07-31T10:45:04.951Z,9.55
2022-07-31T10:47:33.195Z,9.40
2022-07-31T10:50:01.619Z,7.38
2022-07-31T10:52:33.776Z,10.07
2022-07-31T10:55:02.722Z,8.25
2022-07-31T10:57:32.613Z,7.25
2022-07-31T11:00:12.041Z,8.45
2022-07-31T11:02:40.448Z,7.60
2022-07-31T11:05:10.926Z,7.45
2022-07-31T11:07:40.792Z,5.30
2022-07-31T11:10:14.542Z,6.80
2022-07-31T11:12:42.880Z,4.43
2022-07-31T11:15:25.587Z,4.40
2022-07-31T11:18:22.056Z,6.65
2022-07-31T11:20:46.926Z,5.75
2022-07-31T11:23:18.572Z,7.60
2022-07-31T11:25:47.715Z,10.18
2022-07-31T11:28:19.024Z,11.02
2022-07-31T11:30:52.272Z,9.70
2022-07-31T11:33:41.467Z,10.43
2022-07-31T11:36:12.925Z,10.15
2022-07-31T11:38:47.019Z,10.52
2022-07-31T11:41:16.071Z,8.30
2022-07-31T11:43:49.648Z,8.40
2022-07-31T11:46:26.079Z,8.93
2022-07-31T11:48:54.874Z,7.30
2022-07-31T11:51:23.975Z,8.70
2022-07-31T11:53:57.281Z,7.55
2022-07-31T11:56:27.560Z,9.43
2022-07-31T11:58:57.809Z,10.90
2022-07-31T12:01:28.379Z,10.75
2022-07-31T12:03:57.573Z,14.10
2022-07-31T12:06:36.580Z,14.50
2022-07-31T12:09:06.649Z,11.43
2022-07-31T12:11:34.956Z,9.65
2022-07-31T12:14:03.130Z,10.00
2022-07-31T12:16:41.626Z,9.70
2022-07-31T12:19:09.775Z,8.43
2022-07-31T12:21:40.601Z,9.50
2022-07-31T12:24:14.360Z,12.02
2022-07-31T12:26:50.051Z,6.28
2022-07-31T12:29:18.254Z,7.03
2022-07-31T12:31:48.142Z,7.68
2022-07-31T12:34:30.116Z,6.95
2022-07-31T12:36:59.922Z,4.95
2022-07-31T12:39:54.413Z,7.03
2022-07-31T12:42:30.891Z,6.25
2022-07-31T12:45:17.904Z,6.63
2022-07-31T12:47:51.189Z,9.80
2022-07-31T12:50:20.621Z,8.43
2022-07-31T12:52:48.986Z,9.65
2022-07-31T12:55:18.702Z,14.18
2022-07-31T12:57:50.523Z,10.50
2022-07-31T13:00:22.832Z,10.55
2022-07-31T13:02:51.306Z,9.98
2022-07-31T13:05:19.754Z,9.57
2022-07-31T13:07:48.046Z,9.70
2022-07-31T13:10:23.999Z,5.80
2022-07-31T13:12:54.835Z,10.95
2022-07-31T13:15:29.914Z,6.93
2022-07-31T13:17:58.395Z,6.10
2022-07-31T13:20:27.104Z,7.63
2022-07-31T13:22:55.312Z,6.60
2022-07-31T13:25:23.440Z,9.77
2022-07-31T13:27:51.715Z,6.53
2022-07-31T13:30:21.260Z,7.65
2022-07-31T13:32:49.384Z,8.07
2022-07-31T13:35:26.910Z,7.90
2022-07-31T13:37:56.429Z,7.93
2022-07-31T13:40:44.932Z,7.07
2022-07-31T13:43:13.454Z,8.38
2022-07-31T13:45:42.998Z,7.53
2022-07-31T13:48:11.323Z,5.78
2022-07-31T13:50:41.427Z,6.88
2022-07-31T13:53:10.096Z,8.00
2022-07-31T13:55:38.781Z,5.63
2022-07-31T13:58:07.781Z,5.82
2022-07-31T14:00:36.761Z,6.15
2022-07-31T14:03:06.322Z,4.18
2022-07-31T14:05:40.511Z,8.10
2022-07-31T14:08:32.976Z,6.20
2022-07-31T14:10:57.337Z,8.30
2022-07-31T14:13:25.767Z,7.35
2022-07-31T14:15:54.144Z,6.38
2022-07-31T14:18:23.885Z,4.82
2022-07-31T14:20:52.619Z,6.93
2022-07-31T14:23:33.355Z,9.60
2022-07-31T14:26:05.190Z,12.15
2022-07-31T14:28:33.484Z,6.97
2022-07-31T14:31:01.659Z,7.47
2022-07-31T14:33:31.270Z,13.70
2022-07-31T14:35:59.392Z,13.50
2022-07-31T14:38:27.910Z,10.77
2022-07-31T14:40:56.239Z,7.43
2022-07-31T14:43:24.453Z,10.20
2022-07-31T14:45:52.639Z,9.05
2022-07-31T14:48:22.007Z,10.60
2022-07-31T14:50:51.581Z,8.18
2022-07-31T14:53:19.790Z,9.23
2022-07-31T14:55:47.932Z,7.90
2022-07-31T14:58:16.139Z,7.32
2022-07-31T15:00:44.784Z,7.13
2022-07-31T15:03:12.958Z,9.77
2022-07-31T15:06:41.286Z,6.13
2022-07-31T15:08:31.624Z,8.90
2022-07-31T15:10:59.779Z,6.93
2022-07-31T15:13:29.349Z,12.23
2022-07-31T15:15:57.469Z,9.02
2022-07-31T15:18:25.987Z,8.75
2022-07-31T15:20:54.397Z,9.40
2022-07-31T15:23:22.892Z,9.20
2022-07-31T15:25:52.482Z,7.88
2022-07-31T15:28:20.679Z,7.90
2022-07-31T15:30:48.798Z,8.18
2022-07-31T15:33:17.061Z,8.77
2022-07-31T15:35:45.201Z,9.00
2022-07-31T15:38:13.387Z,7.50
2022-07-31T15:40:41.544Z,7.05
2022-07-31T15:43:11.081Z,8.50
2022-07-31T15:45:39.204Z,6.78
2022-07-31T15:48:10.080Z,7.10
2022-07-31T15:50:38.930Z,5.75
2022-07-31T15:53:07.080Z,4.47
2022-07-31T15:55:35.496Z,6.18
2022-07-31T15:58:03.678Z,8.52
2022-07-31T16:00:33.224Z,9.00
2022-07-31T16:03:02.282Z,6.05
2022-07-31T16:05:36.547Z,4.60
2022-07-31T16:08:30.190Z,5.18
2022-07-31T16:10:55.060Z,9.02
2022-07-31T16:13:23.817Z,6.15
2022-07-31T16:15:54.017Z,5.68
2022-07-31T16:18:22.303Z,7.38
2022-07-31T16:20:50.511Z,5.95
2022-07-31T16:23:18.952Z,6.07
2022-07-31T16:25:47.320Z,5.38
2022-07-31T16:28:15.630Z,7.47
2022-07-31T16:30:43.897Z,4.60
2022-07-31T16:33:13.707Z,5.65
2022-07-31T16:35:41.904Z,5.07
2022-07-31T16:38:10.057Z,7.47
2022-07-31T16:40:38.408Z,6.78
2022-07-31T16:43:48.617Z,6.78
2022-07-31T16:45:56.960Z,10.25
2022-07-31T16:48:26.650Z,10.88
2022-07-31T16:50:55.250Z,11.20
2022-07-31T16:54:10.483Z,10.38
2022-07-31T16:56:12.513Z,12.70
2022-07-31T16:58:40.830Z,10.13
2022-07-31T17:01:57.507Z,15.05
2022-07-31T17:04:03.116Z,9.40
2022-07-31T17:06:36.507Z,8.82
2022-07-31T17:09:16.713Z,8.63
2022-07-31T17:11:47.593Z,8.52
2022-07-31T17:14:15.860Z,7.32
2022-07-31T17:16:47.598Z,8.18
2022-07-31T17:19:41.785Z,10.25
2022-07-31T17:22:07.771Z,9.13
2022-07-31T17:24:37.408Z,6.88
2022-07-31T17:27:06.738Z,7.65
2022-07-31T17:29:35.426Z,8.35
2022-07-31T17:32:03.860Z,9.82
2022-07-31T17:34:35.359Z,8.52
2022-07-31T17:37:04.054Z,8.82
2022-07-31T17:39:32.542Z,10.48
2022-07-31T17:42:00.881Z,8.88
2022-07-31T17:44:29.116Z,7.85
2022-07-31T17:46:58.019Z,7.53
2022-07-31T17:49:27.454Z,7.35
2022-07-31T17:51:59.733Z,9.00
2022-07-31T17:54:30.352Z,7.88
2022-07-31T17:56:58.596Z,7.82
2022-07-31T17:59:26.921Z,8.43
2022-07-31T18:01:59.885Z,6.40
2022-07-31T18:04:28.266Z,5.97
2022-07-31T18:06:58.430Z,4.68
2022-07-31T18:09:27.486Z,4.63
2022-07-31T18:11:55.769Z,5.38
2022-07-31T18:14:24.628Z,5.25
2022-07-31T18:16:53.221Z,6.20
2022-07-31T18:19:22.130Z,5.10
2022-07-31T18:21:50.816Z,6.53
2022-07-31T18:24:21.370Z,10.35
2022-07-31T18:26:49.612Z,6.63
2022-07-31T18:29:17.919Z,6.13
2022-07-31T18:31:46.471Z,12.85
2022-07-31T18:34:15.484Z,7.68
2022-07-31T18:36:43.654Z,7.15
2022-07-31T18:39:12.371Z,6.60
2022-07-31T18:41:46.796Z,6.25
2022-07-31T18:44:16.997Z,7.38
2022-07-31T18:46:45.153Z,5.13
2022-07-31T18:50:59.787Z,5.45
2022-07-31T18:52:02.048Z,5.88
2022-07-31T18:54:30.738Z,5.65
2022-07-31T18:57:00.371Z,8.07
2022-07-31T18:59:28.634Z,5.28
2022-07-31T19:01:56.923Z,8.13
2022-07-31T19:04:25.140Z,6.95
2022-07-31T19:06:54.478Z,4.55
2022-07-31T19:09:25.026Z,5.45
2022-07-31T19:11:55.937Z,6.47
2022-07-31T19:14:28.446Z,9.10
2022-07-31T19:16:59.910Z,4.72
2022-07-31T19:19:31.756Z,5.15
2022-07-31T19:22:16.353Z,5.00
2022-07-31T19:24:44.535Z,5.20
2022-07-31T19:27:12.732Z,4.78
2022-07-31T19:29:42.304Z,7.50
2022-07-31T19:32:11.522Z,4.53
2022-07-31T19:34:39.951Z,6.38
2022-07-31T19:37:16.105Z,5.63
2022-07-31T19:39:44.510Z,5.57
2022-07-31T19:42:12.692Z,5.97
2022-07-31T19:44:42.251Z,6.50
2022-07-31T19:47:10.454Z,5.22
2022-07-31T19:49:41.285Z,5.80
2022-07-31T19:52:09.642Z,4.35
2022-07-31T19:54:38.061Z,6.03
2022-07-31T19:57:06.329Z,6.15
2022-07-31T19:59:34.536Z,6.90
2022-07-31T20:02:05.325Z,6.18
2022-07-31T20:04:33.727Z,9.18
2022-07-31T20:07:01.888Z,14.88
2022-07-31T20:09:31.006Z,10.90
2022-07-31T20:11:59.237Z,20.90
2022-07-31T20:14:27.394Z,12.50
2022-07-31T20:16:55.589Z,14.93
2022-07-31T20:19:25.114Z,12.45
2022-07-31T20:21:53.286Z,12.00
2022-07-31T20:24:21.452Z,16.10
2022-07-31T20:26:49.647Z,7.35
2022-07-31T20:29:18.102Z,9.80
2022-07-31T20:31:46.270Z,7.80
2022-07-31T20:34:15.202Z,8.05
2022-07-31T20:36:44.768Z,9.23
2022-07-31T20:39:12.998Z,6.75
2022-07-31T20:41:41.206Z,10.55
2022-07-31T20:44:09.389Z,8.88
2022-07-31T20:46:37.531Z,5.75
2022-07-31T20:49:05.818Z,6.68
2022-07-31T20:51:34.937Z,10.27
2022-07-31T20:54:04.563Z,8.70
2022-07-31T20:56:33.212Z,7.57
2022-07-31T20:59:01.481Z,9.50
2022-07-31T21:01:29.838Z,7.45
2022-07-31T21:03:58.115Z,6.07
2022-07-31T21:06:26.338Z,7.55
2022-07-31T21:08:54.806Z,6.90
2022-07-31T21:11:31.498Z,6.22
2022-07-31T21:14:00.570Z,7.38
2022-07-31T21:16:28.733Z,6.22
2022-07-31T21:18:56.910Z,4.45
2022-07-31T21:21:25.077Z,7.13
2022-07-31T21:23:53.212Z,5.95
2022-07-31T21:26:27.962Z,6.75
2022-07-31T21:28:56.571Z,4.88
2022-07-31T21:31:25.126Z,5.05
2022-07-31T21:33:53.764Z,6.40
2022-07-31T21:36:22.397Z,4.72
2022-07-31T21:38:51.098Z,7.28
2022-07-31T21:41:19.785Z,4.35
2022-07-31T21:43:58.778Z,4.93
2022-07-31T21:46:30.232Z,5.78
2022-07-31T21:48:59.531Z,7.47
2022-07-31T21:51:28.341Z,7.75
2022-07-31T21:53:56.503Z,7.47
2022-07-31T21:56:24.736Z,5.63
2022-07-31T21:58:54.281Z,6.15
2022-07-31T22:01:22.718Z,5.93
2022-07-31T22:03:50.929Z,4.90
2022-07-31T22:06:36.378Z,8.57
2022-07-31T22:09:04.663Z,5.80
2022-07-31T22:11:33.809Z,7.43
2022-07-31T22:14:03.313Z,5.85
2022-07-31T22:16:31.459Z,8.10
2022-07-31T22:19:00.511Z,9.43
2022-07-31T22:21:29.275Z,9.27
2022-07-31T22:23:58.215Z,9.00
2022-07-31T22:26:26.515Z,9.27
2022-07-31T22:28:55.264Z,9.05
2022-07-31T22:31:25.643Z,8.10
2022-07-31T22:33:53.965Z,10.70
2022-07-31T22:36:22.334Z,8.43
2022-07-31T22:38:51.498Z,7.88
2022-07-31T22:41:19.706Z,9.60
2022-07-31T22:44:13.819Z,9.32
2022-07-31T22:46:38.315Z,12.05
2022-07-31T22:49:08.450Z,9.80
2022-07-31T22:51:38.569Z,10.95
2022-07-31T22:54:07.414Z,9.70
2022-07-31T22:56:35.656Z,7.18
2022-07-31T22:59:03.853Z,8.35
2022-07-31T23:01:32.029Z,10.32
2022-07-31T23:04:01.582Z,8.43
2022-07-31T23:06:32.490Z,7.05
2022-07-31T23:09:01.895Z,9.93
2022-07-31T23:11:30.179Z,6.72
2022-07-31T23:13:58.354Z,8.70
2022-07-31T23:16:26.888Z,8.05
2022-07-31T23:18:55.104Z,7.03
2022-07-31T23:21:24.935Z,7.28
2022-07-31T23:23:53.263Z,7.85
2022-07-31T23:26:24.001Z,6.22
2022-07-31T23:28:53.494Z,9.45
2022-07-31T23:31:22.614Z,8.40
2022-07-31T23:33:51.708Z,8.70
2022-07-31T23:36:20.179Z,11.55
2022-07-31T23:38:49.940Z,9.07
2022-07-31T23:41:38.962Z,10.15
2022-07-31T23:44:06.533Z,8.48
2022-07-31T23:46:39.022Z,10.93
2022-07-31T23:49:09.214Z,9.93
2022-07-31T23:51:37.463Z,12.68
2022-07-31T23:54:08.018Z,10.70
2022-07-31T23:56:36.223Z,13.25
2022-07-31T23:59:04.522Z,13.98
